Time;durP1;ratioP1;P1;durP2;ratioP2;P2;SDS_P1;SDS_P2;PMS_P1;PMS_P2;Temp;Humidity;BMP_temperature;BMP_pressure;BME280_temperature;BME280_humidity;BME280_pressure;Samples;Min_cycle;Max_cycle;Signal;HPM_P1;HPM_P2
2022/10/07 06:34:31;;;;;;;;;25.50;21.25;;;;;10.50;68.66;102427.94;2492740;23;45647;-82
2022/10/07 06:35:41;;;;;;;;;25.00;23.50;;;;;10.53;68.87;102424.44;2385657;28;46191;-83
2022/10/07 06:36:53;;;;;;;;;24.00;20.50;;;;;10.53;68.55;102427.97;2390658;28;45459;-83
2022/10/07 06:38:05;;;;;;;;;24.00;21.25;;;;;10.53;68.75;102422.69;2392482;28;45357;-83
2022/10/07 06:39:16;;;;;;;;;22.00;18.75;;;;;10.56;68.68;102427.06;2382210;28;45267;-83
2022/10/07 06:40:27;;;;;;;;;23.50;22.00;;;;;10.57;68.97;102428.78;2375315;28;47374;-82
2022/10/07 06:41:37;;;;;;;;;25.00;21.75;;;;;10.59;68.84;102427.06;2369165;28;45380;-82
2022/10/07 06:42:47;;;;;;;;;22.00;19.00;;;;;10.57;68.81;102423.53;2381627;28;46335;-82
2022/10/07 06:43:59;;;;;;;;;23.50;21.75;;;;;10.63;69.10;102431.41;2382243;28;45411;-83
2022/10/07 06:45:10;;;;;;;;;21.00;18.00;;;;;10.63;68.81;102422.63;2385425;28;45463;-83
2022/10/07 06:46:20;;;;;;;;;23.25;17.00;;;;;10.63;68.72;102423.53;2377993;28;45424;-83
2022/10/07 06:47:30;;;;;;;;;21.00;19.25;;;;;10.67;68.62;102429.63;2368312;28;47139;-83
2022/10/07 06:48:43;;;;;;;;;24.50;21.00;;;;;10.68;68.76;102431.38;2383100;28;45414;-83
2022/10/07 06:49:53;;;;;;;;;23.75;20.75;;;;;10.68;69.01;102421.75;2385765;28;46495;-82
2022/10/07 06:51:04;;;;;;;;;26.50;22.25;;;;;10.71;68.78;102431.38;2392168;28;45328;-83
2022/10/07 06:52:15;;;;;;;;;26.75;21.25;;;;;10.73;68.70;102429.59;2392586;28;46129;-83
2022/10/07 06:53:26;;;;;;;;;30.50;23.00;;;;;10.72;68.58;102424.34;2378656;28;45441;-82
2022/10/07 06:54:36;;;;;;;;;24.00;20.75;;;;;10.74;68.82;102420.81;2373187;28;47241;-83
2022/10/07 06:55:50;;;;;;;;;23.25;22.25;;;;;10.75;68.84;102417.31;2366926;28;45354;-83
2022/10/07 06:57:00;;;;;;;;;29.00;22.50;;;;;10.77;68.72;102428.69;2374500;28;47272;-83
2022/10/07 06:58:11;;;;;;;;;26.00;21.25;;;;;10.79;68.76;102428.69;2371780;28;44798;-83
2022/10/07 06:59:21;;;;;;;;;28.50;26.00;;;;;10.79;68.86;102424.28;2377487;28;45393;-83
2022/10/07 07:00:32;;;;;;;;;28.50;22.25;;;;;10.81;68.69;102424.28;2386574;28;45279;-83
2022/10/07 07:01:42;;;;;;;;;25.25;22.00;;;;;10.85;68.91;102427.75;2388807;28;45466;-82
2022/10/07 07:02:52;;;;;;;;;25.00;23.50;;;;;10.85;68.77;102423.38;2383930;28;45562;-82
2022/10/07 07:04:02;;;;;;;;;26.75;23.00;;;;;10.85;68.80;102425.13;2389124;28;46276;-82
2022/10/07 07:05:14;;;;;;;;;22.50;19.75;;;;;10.88;69.05;102423.38;2390963;28;45178;-83
2022/10/07 07:06:24;;;;;;;;;23.50;20.25;;;;;10.89;69.08;102425.09;2387166;28;45448;-83
2022/10/07 07:07:34;;;;;;;;;22.50;22.25;;;;;10.90;68.92;102432.09;2380899;28;45319;-83
2022/10/07 07:08:48;;;;;;;;;27.75;24.50;;;;;10.92;68.70;102426.81;2385207;28;45519;-84
2022/10/07 07:09:59;;;;;;;;;23.00;22.25;;;;;10.93;68.92;102428.59;2396298;28;45315;-83
2022/10/07 07:12:41;;;;;;;;;30.25;23.25;;;;;10.99;69.07;102430.28;2386408;28;44602;-83
2022/10/07 07:13:52;;;;;;;;;25.25;24.00;;;;;11.00;68.39;102430.28;2383380;28;47042;-84
2022/10/07 07:15:03;;;;;;;;;26.75;24.50;;;;;11.01;68.85;102423.28;2385106;28;45322;-83
2022/10/07 07:16:14;;;;;;;;;29.75;25.25;;;;;11.02;68.70;102420.63;2386640;28;45295;-84
2022/10/07 07:17:24;;;;;;;;;27.50;24.00;;;;;11.05;69.05;102419.72;2381519;28;44680;-83
2022/10/07 07:18:35;;;;;;;;;26.00;23.25;;;;;11.07;68.99;102427.59;2379853;28;45306;-83
2022/10/07 07:19:45;;;;;;;;;26.00;24.75;;;;;11.07;68.70;102422.34;2393549;28;45226;-83
2022/10/07 07:21:02;;;;;;;;;31.75;26.50;;;;;11.09;68.92;102425.81;2389306;28;45425;-83
2022/10/07 07:22:12;;;;;;;;;23.50;22.25;;;;;11.13;68.99;102427.56;2390131;28;45251;-83
2022/10/07 07:23:23;;;;;;;;;24.50;23.50;;;;;11.15;68.69;102423.16;2381860;28;48395;-83
2022/10/07 07:24:34;;;;;;;;;31.00;24.75;;;;;11.18;69.01;102422.25;2375303;28;45379;-83
2022/10/07 07:25:44;;;;;;;;;24.25;21.25;;;;;11.21;69.08;102419.59;2381901;28;46159;-84
2022/10/07 07:26:55;;;;;;;;;22.50;19.25;;;;;11.22;68.96;102421.34;2381470;28;45382;-84
2022/10/07 07:28:06;;;;;;;;;31.25;23.50;;;;;11.25;69.07;102422.19;2383269;28;46047;-83
2022/10/07 07:29:17;;;;;;;;;28.75;23.25;;;;;11.24;69.16;102417.81;2386034;28;44810;-83
2022/10/07 07:30:28;;;;;;;;;27.00;21.00;;;;;11.28;68.91;102412.53;2377671;28;47182;-83
2022/10/07 07:31:39;;;;;;;;;30.00;26.75;;;;;11.31;68.83;102415.97;2370536;28;46306;-84
2022/10/07 07:32:49;;;;;;;;;25.75;25.00;;;;;11.33;68.92;102413.34;2376631;28;46836;-83
2022/10/07 07:34:02;;;;;;;;;28.25;24.50;;;;;11.34;68.80;102407.19;2382069;28;46476;-85
2022/10/07 07:35:13;;;;;;;;;28.25;25.00;;;;;11.36;68.59;102408.91;2390018;28;47264;-84
2022/10/07 07:36:24;;;;;;;;;31.25;27.25;;;;;11.39;69.06;102410.66;2376855;28;45238;-85
2022/10/07 07:37:35;;;;;;;;;10.00;8.75;;;;;11.43;69.05;102411.50;2376906;28;47036;-85
2022/10/07 07:38:51;;;;;;;;;22.50;18.00;;;;;11.43;68.87;102409.72;2387292;28;45462;-84
2022/10/07 07:40:01;;;;;;;;;39.00;34.75;;;;;11.46;68.96;102408.81;2383947;28;48099;-85
2022/10/07 07:41:11;;;;;;;;;47.75;36.75;;;;;11.48;68.93;102414.97;2386883;28;45198;-84
2022/10/07 07:42:22;;;;;;;;;46.25;36.00;;;;;11.51;68.78;102414.06;2378619;28;48356;-85
2022/10/07 07:43:32;;;;;;;;;42.75;33.75;;;;;11.54;68.84;102416.66;2386460;28;45417;-84
2022/10/07 07:44:43;;;;;;;;;44.25;35.00;;;;;11.56;68.90;102414.88;2382960;28;47577;-85
2022/10/07 07:45:57;;;;;;;;;41.25;32.50;;;;;11.58;69.30;102413.13;2387020;28;45343;-84
2022/10/07 07:47:08;;;;;;;;;32.00;26.75;;;;;11.60;68.90;102411.34;2392607;28;46381;-86
2022/10/07 07:48:18;;;;;;;;;32.50;28.75;;;;;11.64;68.99;102418.31;2391854;28;45313;-84
2022/10/07 07:49:30;;;;;;;;;26.00;22.00;;;;;11.66;68.37;102416.53;2393752;28;45424;-84
2022/10/07 07:50:43;;;;;;;;;24.50;22.50;;;;;11.69;69.01;102415.63;2392104;28;45544;-84
2022/10/07 07:51:55;;;;;;;;;29.75;24.75;;;;;11.71;68.96;102411.22;2393964;28;46445;-85
2022/10/07 07:53:05;;;;;;;;;20.50;18.50;;;;;11.74;68.67;102411.19;2394127;28;45229;-84
2022/10/07 07:54:16;;;;;;;;;25.00;22.75;;;;;11.77;68.79;102405.00;2387292;28;46581;-85
2022/10/07 07:55:26;;;;;;;;;20.50;18.75;;;;;11.80;68.85;102408.47;2382407;28;45175;-85
2022/10/07 07:56:37;;;;;;;;;22.50;19.25;;;;;11.84;68.50;102404.06;2375224;28;46985;-85
2022/10/07 07:57:48;;;;;;;;;25.00;21.00;;;;;11.87;68.56;102408.41;2373125;28;45268;-84
2022/10/07 07:59:00;;;;;;;;;22.75;19.00;;;;;11.89;68.59;102396.97;2378670;28;48358;-85
2022/10/07 08:00:11;;;;;;;;;31.00;22.50;;;;;11.89;68.36;102396.97;2373994;28;45259;-85
2022/10/07 08:01:21;;;;;;;;;19.50;17.50;;;;;11.92;68.29;102391.66;2387725;28;46236;-84
2022/10/07 08:02:32;;;;;;;;;22.50;19.25;;;;;11.97;68.38;102394.25;2394431;28;45433;-84
2022/10/07 08:03:45;;;;;;;;;20.25;18.75;;;;;12.00;68.58;102396.81;2382274;28;47295;-85
2022/10/07 08:04:55;;;;;;;;;24.25;20.00;;;;;12.00;68.33;102390.72;2377212;28;44750;-85
2022/10/07 08:06:06;;;;;;;;;20.50;18.50;;;;;12.03;68.53;102390.66;2386366;28;45554;-85
2022/10/07 08:07:17;;;;;;;;;24.75;20.75;;;;;12.06;68.40;102389.75;2393235;28;44831;-84
2022/10/07 08:08:29;;;;;;;;;20.25;20.25;;;;;12.08;68.48;102391.47;2384679;28;46098;-84
2022/10/07 08:09:39;;;;;;;;;18.50;17.00;;;;;12.12;68.43;102397.59;2389103;28;45483;-84
2022/10/07 08:10:49;;;;;;;;;22.75;20.50;;;;;12.16;68.66;102396.66;2388350;28;46334;-85
2022/10/07 08:12:00;;;;;;;;;19.50;18.25;;;;;12.19;68.58;102398.41;2390374;28;45503;-84
2022/10/07 08:13:11;;;;;;;;;25.00;20.75;;;;;12.20;68.58;102395.72;2392309;28;46060;-84
2022/10/07 08:14:22;;;;;;;;;20.50;19.25;;;;;12.24;68.60;102393.94;2379263;28;45405;-84
2022/10/07 08:15:32;;;;;;;;;20.50;20.25;;;;;12.28;68.57;102403.53;2383175;28;45331;-84
2022/10/07 08:16:42;;;;;;;;;32.50;21.75;;;;;12.31;68.50;102400.88;2382381;28;45272;-84
2022/10/07 08:17:53;;;;;;;;;21.75;16.50;;;;;12.32;68.26;102392.06;2375281;28;48361;-84
2022/10/07 08:19:04;;;;;;;;;21.50;19.50;;;;;12.36;68.30;102398.16;2384825;28;44852;-84
2022/10/07 08:20:15;;;;;;;;;22.75;22.25;;;;;12.38;67.88;102399.91;2383381;28;46469;-84
2022/10/07 08:21:31;;;;;;;;;27.00;23.75;;;;;12.45;67.84;102394.53;2384664;28;45405;-84
2022/10/07 08:22:44;;;;;;;;;25.50;19.25;;;;;12.46;68.04;102398.91;2382276;28;47258;-84
2022/10/07 08:23:57;;;;;;;;;24.25;22.25;;;;;12.47;68.22;102396.25;2377948;28;45432;-84
2022/10/07 08:25:07;;;;;;;;;21.00;20.00;;;;;12.51;68.11;102398.84;2391544;28;45535;-84
2022/10/07 08:26:18;;;;;;;;;24.00;18.75;;;;;12.54;67.40;102398.81;2394208;28;45219;-84
2022/10/07 08:27:28;;;;;;;;;22.75;18.75;;;;;12.58;67.84;102405.78;2384986;28;45468;-85
2022/10/07 08:28:39;;;;;;;;;28.75;20.25;;;;;12.60;67.83;102399.59;2379818;28;45299;-84
2022/10/07 08:29:50;;;;;;;;;21.25;19.00;;;;;12.63;67.38;102403.06;2386609;28;46194;-85
2022/10/07 08:31:19;;;;;;;;;27.25;20.00;;;;;12.67;67.30;102399.47;2383362;28;45328;-84
2022/10/07 08:32:30;;;;;;;;;17.50;15.50;;;;;12.68;67.42;102391.56;2387830;28;45492;-85
2022/10/07 08:33:43;;;;;;;;;18.50;16.00;;;;;12.72;67.05;102387.09;2383929;28;45302;-84
2022/10/07 08:34:54;;;;;;;;;20.25;17.50;;;;;12.76;67.06;102387.94;2386287;28;45323;-85
2022/10/07 08:36:05;;;;;;;;;20.00;16.00;;;;;12.79;67.05;102382.63;2388833;28;45369;-84
2022/10/07 08:37:16;;;;;;;;;20.25;16.75;;;;;12.81;66.84;102378.19;2385720;28;46803;-85
2022/10/07 08:38:31;;;;;;;;;16.75;15.75;;;;;12.86;66.83;102386.00;2382253;28;45428;-84
2022/10/07 08:39:41;;;;;;;;;13.25;11.75;;;;;12.89;66.57;102378.06;2377522;28;48482;-85
2022/10/07 08:40:52;;;;;;;;;12.00;10.00;;;;;12.92;66.51;102381.50;2381765;28;45319;-84
2022/10/07 08:42:40;;;;;;;;;12.25;11.00;;;;;12.94;66.96;102370.91;2392312;28;45434;-84
2022/10/07 08:43:51;;;;;;;;;9.50;9.50;;;;;12.99;66.36;102378.78;2384629;28;44815;-84
2022/10/07 08:45:02;;;;;;;;;16.75;11.25;;;;;13.03;66.70;102377.81;2380230;28;48296;-84
2022/10/07 08:46:20;;;;;;;;;10.75;10.00;;;;;13.05;66.31;102371.63;2386517;28;45485;-82
2022/10/07 08:47:40;;;;;;;;;12.25;11.25;;;;;13.07;66.30;102371.56;2383773;28;47030;-83
2022/10/07 08:48:59;;;;;;;;;12.75;11.25;;;;;13.13;66.23;102370.59;2372765;28;44722;-83
2022/10/07 08:50:30;;;;;;;;;14.00;11.75;;;;;13.16;66.29;102374.06;2384529;28;46557;-82
2022/10/07 08:51:47;;;;;;;;;15.25;11.00;;;;;13.19;66.11;102367.84;2378896;28;45310;-83
2022/10/07 08:53:03;;;;;;;;;15.25;13.50;;;;;13.23;66.10;102366.91;2384400;28;45539;-83
2022/10/07 08:54:17;;;;;;;;;14.00;11.25;;;;;13.24;65.90;102368.63;2394146;28;45259;-83
2022/10/07 08:55:44;;;;;;;;;19.75;12.25;;;;;13.28;65.87;102370.31;2384702;28;46556;-83
2022/10/07 08:57:05;;;;;;;;;11.00;9.00;;;;;13.32;65.83;102364.97;2391178;28;45209;-83
2022/10/07 08:58:39;;;;;;;;;14.25;10.25;;;;;13.35;65.70;102364.94;2388834;28;45235;-83
2022/10/07 08:59:57;;;;;;;;;20.25;15.50;;;;;13.38;65.35;102365.72;2392774;28;45992;-83
2022/10/07 09:01:33;;;;;;;;;14.25;12.25;;;;;13.43;65.42;102368.31;2390902;28;47485;-83
2022/10/07 09:03:14;;;;;;;;;12.50;12.25;;;;;13.49;65.35;102368.19;2386468;28;44668;-83
2022/10/07 09:04:33;;;;;;;;;20.25;13.75;;;;;13.50;64.99;102364.66;2385346;28;46405;-83
2022/10/07 09:05:48;;;;;;;;;14.50;11.00;;;;;13.55;65.02;102361.03;2389587;28;45367;-83
2022/10/07 09:07:16;;;;;;;;;14.00;10.00;;;;;13.57;65.08;102361.91;2392228;28;45496;-83
2022/10/07 09:08:34;;;;;;;;;12.25;12.00;;;;;13.60;64.90;102353.94;2390167;28;45507;-83
2022/10/07 09:09:53;;;;;;;;;15.00;10.50;;;;;13.64;64.92;102349.44;2383041;28;48446;-83
2022/10/07 09:11:17;;;;;;;;;19.25;11.75;;;;;13.67;65.35;102347.63;2383824;28;45301;-83
2022/10/07 09:12:48;;;;;;;;;14.75;11.00;;;;;13.70;64.59;102347.53;2393533;28;46336;-83
2022/10/07 09:14:30;;;;;;;;;13.25;13.25;;;;;13.78;64.71;102349.19;2393645;28;45424;-83
2022/10/07 09:15:48;;;;;;;;;14.75;11.50;;;;;13.79;64.14;102337.69;2382459;28;45291;-83
2022/10/07 09:17:25;;;;;;;;;19.00;11.00;;;;;13.85;64.41;102334.94;2383706;28;45306;-84
2022/10/07 09:18:46;;;;;;;;;17.75;9.50;;;;;13.88;63.84;102340.13;2389845;28;45322;-84
2022/10/07 09:20:18;;;;;;;;;12.75;10.00;;;;;13.91;64.25;102334.78;2390440;28;45551;-83
2022/10/07 09:21:38;;;;;;;;;11.50;9.50;;;;;13.97;63.77;102332.94;2384693;28;45661;-83
2022/10/07 09:22:56;;;;;;;;;9.25;8.25;;;;;14.00;63.73;102332.88;2392073;28;45360;-83
2022/10/07 09:24:23;;;;;;;;;12.75;9.50;;;;;14.03;63.59;102331.00;2391936;28;45619;-82
2022/10/07 09:25:34;;;;;;;;;16.25;10.00;;;;;14.08;63.97;102325.63;2383221;28;45238;-83
2022/10/07 09:26:45;;;;;;;;;13.50;10.50;;;;;14.10;63.90;102323.81;2385935;28;46359;-83
2022/10/07 09:27:55;;;;;;;;;15.75;9.75;;;;;14.14;63.37;102328.13;2387675;28;45384;-83
2022/10/07 09:29:08;;;;;;;;;15.00;11.25;;;;;14.17;63.42;102324.56;2388055;28;45785;-83
2022/10/07 09:30:21;;;;;;;;;9.50;8.75;;;;;14.21;63.02;102320.06;2387756;28;45427;-82
2022/10/07 09:31:32;;;;;;;;;10.25;9.00;;;;;14.25;63.02;102317.28;2392185;28;46626;-84
2022/10/07 09:32:45;;;;;;;;;9.50;9.50;;;;;14.27;62.73;102315.47;2393071;28;44704;-83
2022/10/07 09:33:56;;;;;;;;;10.25;9.25;;;;;14.32;62.81;102312.72;2383935;28;45663;-83
2022/10/07 09:35:16;;;;;;;;;21.75;15.00;;;;;14.35;62.69;102312.66;2392654;28;45325;-83
2022/10/07 09:36:26;;;;;;;;;20.25;15.25;;;;;14.41;62.94;102314.31;2389459;28;45484;-83
2022/10/07 09:37:54;;;;;;;;;24.00;16.75;;;;;14.44;62.73;102313.34;2389907;28;45460;-84
2022/10/07 09:39:23;;;;;;;;;11.50;9.25;;;;;14.47;62.17;102305.34;2384481;28;45567;-83
2022/10/07 09:42:42;;;;;;;;;10.50;9.50;;;;;14.52;62.38;102301.66;2385805;28;45696;-83
2022/10/07 09:44:16;;;;;;;;;10.75;10.00;;;;;14.59;62.41;102307.66;2384325;28;45374;-83
2022/10/07 09:45:32;;;;;;;;;9.25;9.25;;;;;14.60;62.22;102298.84;2383861;28;45558;-84
2022/10/07 09:46:47;;;;;;;;;9.00;6.25;;;;;14.67;62.16;102296.06;2382936;28;45251;-83
2022/10/07 09:48:06;;;;;;;;;0.00;0.00;;;;;14.66;62.51;102292.53;2386746;28;46387;-84
2022/10/07 09:49:28;;;;;;;;;9.25;8.25;;;;;14.72;62.47;102297.66;2393048;28;45301;-83
2022/10/07 09:50:41;;;;;;;;;10.75;9.25;;;;;14.73;62.25;102299.41;2386884;28;45391;-82
2022/10/07 09:52:17;;;;;;;;;10.50;9.00;;;;;14.78;61.83;102291.34;2391675;28;45645;-83
2022/10/07 09:53:32;;;;;;;;;7.25;5.25;;;;;14.78;61.67;102275.47;2383727;28;45525;-83
2022/10/07 09:54:44;;;;;;;;;12.50;7.25;;;;;14.84;61.45;102282.38;2384888;28;45386;-83
2022/10/07 09:55:55;;;;;;;;;15.25;8.00;;;;;14.84;61.56;102272.63;2383676;28;45343;-83
2022/10/07 09:57:05;;;;;;;;;12.75;7.50;;;;;14.89;61.41;102280.50;2390070;28;44667;-83
2022/10/07 09:58:26;;;;;;;;;10.50;6.25;;;;;14.93;61.35;102278.63;2392931;28;46002;-83
2022/10/07 09:59:37;;;;;;;;;9.25;8.00;;;;;14.94;61.49;102275.06;2392075;28;45329;-84
2022/10/07 10:00:54;;;;;;;;;10.75;7.00;;;;;14.99;61.30;102278.47;2384021;28;45299;-84
2022/10/07 10:02:14;;;;;;;;;7.75;7.00;;;;;15.02;61.46;102277.50;2376963;28;45759;-83
2022/10/07 10:03:32;;;;;;;;;11.00;8.25;;;;;15.02;61.36;102267.78;2383086;28;47253;-84
2022/10/07 10:04:49;;;;;;;;;4.00;3.25;;;;;15.06;61.33;102269.44;2382791;28;45278;-83
2022/10/07 10:06:07;;;;;;;;;10.50;7.50;;;;;15.13;60.99;102274.59;2392682;28;45560;-83
2022/10/07 10:07:23;;;;;;;;;5.25;4.75;;;;;15.14;61.07;102265.72;2391332;28;45609;-84
2022/10/07 10:08:41;;;;;;;;;15.00;7.75;;;;;15.19;60.69;102271.75;2390615;28;45436;-83
2022/10/07 10:09:58;;;;;;;;;5.75;4.00;;;;;15.21;60.74;102271.72;2391513;28;45433;-84
2022/10/07 10:11:18;;;;;;;;;7.50;5.00;;;;;15.26;60.74;102268.00;2387569;28;46375;-83
2022/10/07 10:12:33;;;;;;;;;5.25;5.00;;;;;15.27;60.81;102256.53;2393496;28;45309;-83
2022/10/07 10:13:43;;;;;;;;;9.50;8.25;;;;;15.32;60.79;102263.47;2374666;28;48459;-82
2022/10/07 10:14:57;;;;;;;;;10.75;8.75;;;;;15.36;60.98;102260.66;2385745;28;45302;-83
2022/10/07 10:16:23;;;;;;;;;8.25;7.25;;;;;15.40;60.69;102259.69;2381960;28;48076;-83
2022/10/07 10:17:33;;;;;;;;;7.50;6.00;;;;;15.43;60.43;102260.50;2385254;28;45379;-83
2022/10/07 10:18:53;;;;;;;;;7.75;5.25;;;;;15.44;59.61;102260.44;2384225;28;46312;-83
2022/10/07 10:20:22;;;;;;;;;8.75;5.00;;;;;15.50;59.34;102257.63;2388433;28;45739;-83
2022/10/07 10:21:39;;;;;;;;;6.50;4.75;;;;;15.53;59.86;102252.22;2392087;28;45353;-83
2022/10/07 10:22:51;;;;;;;;;9.25;5.75;;;;;15.55;59.99;102244.25;2392169;28;45475;-82
2022/10/07 10:24:05;;;;;;;;;4.00;2.75;;;;;15.58;58.85;102248.59;2389184;28;46313;-83
2022/10/07 10:26:57;;;;;;;;;5.00;3.25;;;;;15.67;58.88;102250.97;2388186;28;45404;-84
2022/10/07 10:28:44;;;;;;;;;3.00;3.00;;;;;15.68;57.99;102247.38;2392201;28;45492;-83
2022/10/07 10:30:01;;;;;;;;;2.75;2.00;;;;;15.72;57.61;102251.69;2383219;28;45492;-83
2022/10/07 10:31:34;;;;;;;;;3.50;2.25;;;;;15.73;57.49;102242.81;2387259;28;45766;-83
2022/10/07 10:33:13;;;;;;;;;2.75;2.75;;;;;15.81;57.80;102244.34;2390394;28;46856;-83
2022/10/07 10:35:01;;;;;;;;;3.50;3.50;;;;;15.82;58.14;102233.72;2390009;28;45228;-83
2022/10/07 10:36:11;;;;;;;;;2.75;2.00;;;;;15.85;57.83;102241.56;2392392;28;46904;-84
2022/10/07 10:37:40;;;;;;;;;3.25;3.00;;;;;15.86;58.11;102226.53;2388602;28;44681;-83
2022/10/07 10:39:01;;;;;;;;;1.75;1.75;;;;;15.91;57.42;102229.88;2391023;28;45454;-83
2022/10/07 10:40:41;;;;;;;;;3.25;2.00;;;;;15.94;57.39;102228.94;2391702;28;45455;-83
2022/10/07 10:41:56;;;;;;;;;2.50;1.50;;;;;15.95;57.41;102226.22;2373643;28;46179;-83
2022/10/07 10:43:22;;;;;;;;;6.00;3.00;;;;;15.99;58.01;102227.00;2383927;28;44823;-83
2022/10/07 10:44:45;;;;;;;;;3.75;2.00;;;;;16.02;57.29;102223.38;2391004;28;45451;-83
2022/10/07 10:46:06;;;;;;;;;5.50;2.75;;;;;16.03;57.48;102222.44;2389147;28;45304;-84
2022/10/07 10:47:35;;;;;;;;;2.75;2.50;;;;;16.06;57.62;102225.03;2391797;28;45602;-84
2022/10/07 10:49:18;;;;;;;;;6.00;2.00;;;;;16.06;57.23;102212.66;2382216;28;45570;-83
2022/10/07 10:50:52;;;;;;;;;3.00;1.75;;;;;16.10;57.42;102213.41;2384931;28;46663;-83
2022/10/07 10:52:26;;;;;;;;;6.00;2.25;;;;;16.14;57.62;102219.50;2387208;28;45270;-83
2022/10/07 10:54:23;;;;;;;;;4.75;3.00;;;;;16.16;57.69;102207.03;2384956;28;45361;-83
2022/10/07 10:56:01;;;;;;;;;5.50;3.00;;;;;16.20;57.96;102208.66;2378707;28;45231;-83
2022/10/07 10:57:15;;;;;;;;;2.00;2.00;;;;;16.24;57.26;102209.44;2389562;28;46494;-83
2022/10/07 10:58:56;;;;;;;;;4.00;3.25;;;;;16.24;56.43;102201.50;2378082;28;45316;-83
2022/10/07 11:00:11;;;;;;;;;4.00;3.00;;;;;16.29;57.29;102200.41;2371209;28;47564;-83
2022/10/07 11:01:31;;;;;;;;;2.00;2.00;;;;;16.33;57.14;102200.28;2383267;28;45254;-83
2022/10/07 11:03:00;;;;;;;;;2.00;2.00;;;;;16.37;57.09;102205.44;2389792;28;45577;-83
2022/10/07 11:04:46;;;;;;;;;3.75;2.00;;;;;16.40;56.03;102200.03;2392748;28;45131;-84
2022/10/07 11:06:02;;;;;;;;;3.00;2.00;;;;;16.42;56.12;102200.84;2349628;28;45557;-83
2022/10/07 11:07:31;;;;;;;;;3.00;1.00;;;;;16.45;56.04;102196.34;2392615;28;45246;-83
2022/10/07 11:08:43;;;;;;;;;1.50;1.00;;;;;16.49;56.57;102198.88;2388631;28;46321;-83
2022/10/07 11:09:59;;;;;;;;;3.25;2.00;;;;;16.50;55.76;102189.97;2392847;28;45246;-84
2022/10/07 11:11:18;;;;;;;;;2.00;2.00;;;;;16.52;56.15;102189.91;2394239;28;45436;-83
2022/10/07 11:12:36;;;;;;;;;2.00;2.00;;;;;16.54;56.01;102185.44;2402698;28;45364;-83
2022/10/07 11:14:00;;;;;;;;;3.50;2.00;;;;;16.57;56.44;102190.63;2392907;28;45562;-83
2022/10/07 11:15:43;;;;;;;;;2.75;2.25;;;;;16.60;54.93;102190.50;2391382;28;44767;-84
2022/10/07 11:17:01;;;;;;;;;1.00;1.00;;;;;16.63;55.66;102187.75;2392248;28;46722;-84
2022/10/07 11:18:25;;;;;;;;;3.75;2.00;;;;;16.69;56.84;102188.47;2392661;28;45167;-83
2022/10/07 11:19:42;;;;;;;;;4.00;4.00;;;;;16.72;56.07;102188.31;2381986;28;47693;-84
2022/10/07 11:20:53;;;;;;;;;5.75;3.00;;;;;16.74;56.24;102186.50;2388194;28;45240;-83
2022/10/07 11:22:13;;;;;;;;;4.50;3.00;;;;;16.75;55.81;102174.94;2394092;28;45336;-83
2022/10/07 11:23:30;;;;;;;;;2.75;2.00;;;;;16.81;55.11;102171.22;2395530;28;45709;-84
2022/10/07 11:24:49;;;;;;;;;2.50;2.25;;;;;16.83;55.48;102175.56;2401106;28;45264;-83
2022/10/07 11:26:09;;;;;;;;;3.25;2.75;;;;;16.86;55.72;102170.13;2392762;28;45400;-83
2022/10/07 11:27:24;;;;;;;;;4.00;2.25;;;;;16.90;56.16;102162.03;2392961;28;46289;-83
2022/10/07 11:28:38;;;;;;;;;5.00;2.00;;;;;16.94;54.98;102166.31;2393366;28;45425;-83
2022/10/07 11:30:14;;;;;;;;;4.00;2.00;;;;;16.98;54.90;102162.63;2391698;28;47461;-83
2022/10/07 11:31:38;;;;;;;;;2.00;2.00;;;;;17.02;55.02;102158.03;2392950;28;44608;-83
2022/10/07 11:33:00;;;;;;;;;3.00;3.00;;;;;17.04;54.36;102161.53;2385801;28;45508;-83
2022/10/07 11:34:16;;;;;;;;;3.50;3.00;;;;;17.06;54.82;102155.22;2383634;28;45254;-83
2022/10/07 11:36:13;;;;;;;;;4.75;3.00;;;;;17.12;54.99;102158.56;2389528;28;45429;-83
2022/10/07 11:37:34;;;;;;;;;5.00;4.00;;;;;17.14;55.02;102146.97;2336946;29;45334;-84
2022/10/07 11:38:45;;;;;;;;;5.00;1.00;;;;;17.16;54.91;102149.59;2339429;29;45269;-84
2022/10/07 11:39:56;;;;;;;;;1.50;1.50;;;;;17.19;55.15;102145.03;2377992;28;45223;-83
2022/10/07 11:41:15;;;;;;;;;2.50;2.50;;;;;17.21;54.80;102145.81;2391971;28;45481;-83
2022/10/07 11:42:27;;;;;;;;;3.25;2.00;;;;;17.22;54.67;102149.34;2387453;28;45461;-83
2022/10/07 11:43:48;;;;;;;;;5.75;3.00;;;;;17.26;53.54;102139.50;2386395;28;45680;-83
2022/10/07 11:45:03;;;;;;;;;2.00;1.25;;;;;17.28;54.39;102138.50;2383837;28;45369;-83
2022/10/07 11:46:23;;;;;;;;;1.50;1.50;;;;;17.29;54.42;102145.53;2388487;28;46706;-83
2022/10/07 11:47:45;;;;;;;;;1.75;1.00;;;;;17.30;53.75;102135.78;2382809;28;45327;-82
2022/10/07 11:49:04;;;;;;;;;1.00;1.00;;;;;17.34;53.30;102133.84;2380942;28;47266;-81
2022/10/07 11:50:19;;;;;;;;;5.00;1.25;;;;;17.35;52.66;102127.63;2383833;28;45447;-81
2022/10/07 11:51:35;;;;;;;;;1.00;1.00;;;;;17.35;52.93;102117.00;2392394;28;45369;-81
2022/10/07 11:52:49;;;;;;;;;3.75;1.00;;;;;17.38;52.59;102117.75;2389137;28;45416;-81
2022/10/07 11:54:05;;;;;;;;;3.00;1.25;;;;;17.40;52.24;102123.84;2392814;28;45288;-81
2022/10/07 11:55:38;;;;;;;;;1.50;1.50;;;;;17.40;52.93;102115.00;2394540;28;45227;-81
2022/10/07 11:56:51;;;;;;;;;1.50;1.00;;;;;17.43;52.33;102117.56;2394486;28;45373;-81
2022/10/07 11:58:03;;;;;;;;;2.75;2.75;;;;;17.45;52.19;102110.38;2393390;28;45246;-82
2022/10/07 11:59:40;;;;;;;;;2.00;0.75;;;;;17.49;52.44;102119.09;2384240;28;47415;-81
2022/10/07 12:01:25;;;;;;;;;2.00;2.00;;;;;17.50;52.94;102115.50;2381065;28;44737;-83
2022/10/07 12:02:41;;;;;;;;;2.50;2.00;;;;;17.50;52.50;102105.75;2387443;28;45470;-84
2022/10/07 12:03:53;;;;;;;;;1.00;1.00;;;;;17.50;52.74;102092.47;2384145;28;44775;-83
2022/10/07 12:05:06;;;;;;;;;1.00;1.00;;;;;17.52;52.66;102097.69;2391534;28;46418;-84
2022/10/07 12:06:17;;;;;;;;;2.00;1.00;;;;;17.54;52.04;102096.72;2394720;28;44779;-83
2022/10/07 12:07:30;;;;;;;;;1.75;1.00;;;;;17.59;51.81;102099.19;2388599;28;46513;-84
2022/10/07 12:08:43;;;;;;;;;1.25;1.25;;;;;17.60;51.46;102089.41;2392811;28;45796;-83
2022/10/07 12:09:53;;;;;;;;;2.75;1.00;;;;;17.63;52.32;102091.97;2389519;28;45560;-82
2022/10/07 12:11:35;;;;;;;;;2.50;1.25;;;;;17.66;51.93;102087.38;2390954;28;44776;-83
2022/10/07 12:12:51;;;;;;;;;2.00;2.00;;;;;17.68;51.37;102081.13;2389815;28;45366;-82
2022/10/07 12:14:31;;;;;;;;;2.25;1.25;;;;;17.69;51.43;102078.41;2390205;28;45287;-82
2022/10/07 12:15:43;;;;;;;;;1.00;1.00;;;;;17.70;51.49;102084.59;2390231;28;45663;-82
2022/10/07 12:16:54;;;;;;;;;2.00;1.25;;;;;17.69;50.54;102075.75;2391352;28;44726;-82
2022/10/07 12:18:04;;;;;;;;;2.00;1.25;;;;;17.73;48.95;102073.81;2388189;28;45487;-82
2022/10/07 12:19:16;;;;;;;;;1.25;1.25;;;;;17.74;48.80;102073.75;2391806;28;45231;-82
2022/10/07 12:20:43;;;;;;;;;3.25;1.00;;;;;17.76;50.03;102069.22;2392739;28;45566;-83
2022/10/07 12:22:03;;;;;;;;;0.75;0.75;;;;;17.80;50.54;102063.78;2391405;28;45490;-83
2022/10/07 12:23:19;;;;;;;;;2.25;0.25;;;;;17.82;50.57;102064.59;2391763;28;46316;-83
2022/10/07 12:24:30;;;;;;;;;3.75;1.75;;;;;17.86;50.88;102069.69;2392690;28;45274;-83
2022/10/07 12:25:45;;;;;;;;;0.25;0.00;;;;;17.85;50.34;102061.81;2388953;28;45815;-83
2022/10/07 12:27:04;;;;;;;;;1.25;1.25;;;;;17.86;50.20;102060.84;2391367;28;45399;-83
2022/10/07 12:28:40;;;;;;;;;3.75;1.50;;;;;17.91;50.39;102065.97;2390238;28;45365;-83
2022/10/07 12:29:57;;;;;;;;;2.00;2.00;;;;;17.91;50.28;102060.66;2388051;28;45283;-82
2022/10/07 12:31:22;;;;;;;;;4.50;1.75;;;;;17.91;48.35;102058.84;2382963;28;47354;-83
2022/10/07 12:32:59;;;;;;;;;2.00;2.00;;;;;17.91;49.24;102050.88;2388628;28;44750;-83
2022/10/07 12:34:10;;;;;;;;;2.00;2.00;;;;;17.90;49.50;102049.16;2393307;28;45370;-83
2022/10/07 12:35:41;;;;;;;;;0.00;0.00;;;;;17.93;48.32;102049.00;2393983;28;45382;-83